Sidney, Nebraska
Current Conditions -  °F | °C
As of 9:53 AM on Sunday 21 Dec 2014 (Local Time) from KSNY Reporting Station
Overcast Overcast  
Wind Chill: 28°   Ceiling: 8000
Heat Index: 37°   Visibility: 10mi
Dew Point: 24°   Wind: 14mph
Humidity: 59%   Direction: 220°SW
Pressure: 29.64"   Gusts: NA
Location:  41.14°N, 102.97°W
Report Text: KSNY 211653Z AUTO 22012KT 10SM OVC080 03/M04 A2964 RMK AO2 SLP053 T00281044
Loading
Personal Weather Stations






























Interactive Weather Map New forecast layout! Learn more

10-Day Weather Forecast

Advertisements
Track Severe Weather on mobile